Observation data for Post on 10/19/2019      Previous  Date  Next       Current Mesonet Observations  Soil Data  Daily Summary Page  Observations in Plain Language
KPT1 190500Z 26010KT 20/05 A2973 RMK A01 T01980047  RH  038%=      5-min Rain = 0
KPT1 190505Z 26011KT 20/05 A2972 RMK A01 T01970047  RH  038%=      5-min Rain = 0
KPT1 190510Z 26011G16KT 20/05 A2972 RMK A01 T01960047  RH  038%=      5-min Rain = 0
KPT1 190515Z 26012G17KT 19/05 A2972 RMK A01 T01930047  RH  039%=      5-min Rain = 0
KPT1 190520Z 26011KT 19/05 A2972 RMK A01 T01910047  RH  039%=      5-min Rain = 0
KPT1 190525Z 26011KT 19/05 A2972 RMK A01 T01890047  RH  040%=      5-min Rain = 0
KPT1 190530Z 26012KT 19/05 A2972 RMK A01 T01910047  RH  039%=      5-min Rain = 0
KPT1 190535Z 26011KT 19/05 A2973 RMK A01 T01920047  RH  039%=      5-min Rain = 0
KPT1 190540Z 26013KT 19/05 A2973 RMK A01 T01910047  RH  039%=      5-min Rain = 0
KPT1 190545Z 26012KT 19/05 A2973 RMK A01 T01890047  RH  040%=      5-min Rain = 0
KPT1 190550Z 26013G19KT 19/05 A2973 RMK A01 T01880047  RH  040%=      5-min Rain = 0
KPT1 190555Z 26013KT 19/05 A2973 RMK A01 T01900046  RH  039%=      5-min Rain = 0
KPT1 190600Z 26013KT 19/05 A2973 RMK A01 T01910046  RH  039%=      5-min Rain = 0
KPT1 190605Z 26014KT 19/05 A2973 RMK A01 T01900045  RH  039%=      5-min Rain = 0
KPT1 190610Z 26014KT 19/05 A2973 RMK A01 T01880045  RH  040%=      5-min Rain = 0
KPT1 190615Z 26014G19KT 19/05 A2973 RMK A01 T01890045  RH  040%=      5-min Rain = 0
KPT1 190620Z 26014KT 19/05 A2973 RMK A01 T01870045  RH  040%=      5-min Rain = 0
KPT1 190625Z 26014G19KT 19/05 A2972 RMK A01 T01870045  RH  040%=      5-min Rain = 0
KPT1 190630Z 26015G20KT 19/05 A2972 RMK A01 T01870045  RH  040%=      5-min Rain = 0
KPT1 190635Z 26014KT 19/05 A2972 RMK A01 T01870045  RH  040%=      5-min Rain = 0
KPT1 190640Z 26014KT 19/05 A2972 RMK A01 T01870045  RH  040%=      5-min Rain = 0
KPT1 190645Z 26014KT 19/05 A2972 RMK A01 T01870045  RH  040%=      5-min Rain = 0
KPT1 190650Z 26015G20KT 19/05 A2972 RMK A01 T01870045  RH  040%=      5-min Rain = 0
KPT1 190655Z 26015G20KT 19/04 A2972 RMK A01 T01870044  RH  040%=      5-min Rain = 0
KPT1 190700Z 26015G21KT 19/04 A2972 RMK A01 T01860044  RH  040%=      5-min Rain = 0
KPT1 190705Z 26014G19KT 19/04 A2973 RMK A01 T01850044  RH  040%=      5-min Rain = 0
KPT1 190710Z 26015G21KT 18/04 A2973 RMK A01 T01840044  RH  040%=      5-min Rain = 0
KPT1 190715Z 26015G20KT 18/05 A2972 RMK A01 T01840045  RH  041%=      5-min Rain = 0
KPT1 190720Z 26014G19KT 18/05 A2972 RMK A01 T01840045  RH  041%=      5-min Rain = 0
KPT1 190725Z 26014G19KT 18/05 A2973 RMK A01 T01830045  RH  041%=      5-min Rain = 0
KPT1 190730Z 26015G21KT 18/05 A2973 RMK A01 T01830046  RH  041%=      5-min Rain = 0
KPT1 190735Z 26015KT 18/05 A2973 RMK A01 T01830046  RH  041%=      5-min Rain = 0
KPT1 190740Z 26015KT 18/05 A2973 RMK A01 T01820046  RH  042%=      5-min Rain = 0
KPT1 190745Z 26014G20KT 18/05 A2974 RMK A01 T01800047  RH  042%=      5-min Rain = 0
KPT1 190750Z 26014G19KT 18/05 A2974 RMK A01 T01790047  RH  042%=      5-min Rain = 0
KPT1 190755Z 26014G19KT 18/05 A2974 RMK A01 T01770047  RH  043%=      5-min Rain = 0
KPT1 190800Z 26015G20KT 18/05 A2974 RMK A01 T01760047  RH  044%=      5-min Rain = 0
KPT1 190805Z 26015G22KT 17/05 A2974 RMK A01 T01740047  RH  044%=      5-min Rain = 0
KPT1 190810Z 26014G21KT 17/05 A2974 RMK A01 T01720048  RH  045%=      5-min Rain = 0
KPT1 190815Z 27015G21KT 17/05 A2974 RMK A01 T01710048  RH  045%=      5-min Rain = 0
KPT1 190820Z 27015G21KT 17/05 A2975 RMK A01 T01700048  RH  045%=      5-min Rain = 0
KPT1 190825Z 27014G19KT 17/05 A2975 RMK A01 T01670048  RH  046%=      5-min Rain = 0
KPT1 190830Z 28015G22KT 17/05 A2976 RMK A01 T01660047  RH  046%=      5-min Rain = 0
KPT1 190835Z 28013G18KT 17/05 A2976 RMK A01 T01670046  RH  046%=      5-min Rain = 0
KPT1 190840Z 28013G18KT 16/05 A2976 RMK A01 T01640047  RH  047%=      5-min Rain = 0
KPT1 190845Z 28014G19KT 16/05 A2976 RMK A01 T01620046  RH  047%=      5-min Rain = 0
KPT1 190850Z 29013G21KT 16/05 A2977 RMK A01 T01610046  RH  047%=      5-min Rain = 0
KPT1 190855Z 29013G18KT 16/05 A2977 RMK A01 T01600045  RH  047%=      5-min Rain = 0
KPT1 190900Z 29013G19KT 16/04 A2977 RMK A01 T01610044  RH  047%=      5-min Rain = 0
KPT1 190905Z 29012G17KT 16/04 A2977 RMK A01 T01590042  RH  047%=      5-min Rain = 0
KPT1 190910Z 30012KT 16/04 A2977 RMK A01 T01600041  RH  046%=      5-min Rain = 0
KPT1 190915Z 30011KT 16/04 A2977 RMK A01 T01580039  RH  046%=      5-min Rain = 0
KPT1 190920Z 30011KT 16/04 A2978 RMK A01 T01580037  RH  045%=      5-min Rain = 0
KPT1 190925Z 30011KT 16/04 A2978 RMK A01 T01580036  RH  045%=      5-min Rain = 0
KPT1 190930Z 30012KT 16/04 A2978 RMK A01 T01570035  RH  045%=      5-min Rain = 0
KPT1 190935Z 30013KT 16/04 A2978 RMK A01 T01570035  RH  045%=      5-min Rain = 0
KPT1 190940Z 31013KT 16/03 A2978 RMK A01 T01560034  RH  045%=      5-min Rain = 0
KPT1 190945Z 30013KT 16/03 A2978 RMK A01 T01550034  RH  045%=      5-min Rain = 0
KPT1 190950Z 30011G16KT 15/03 A2979 RMK A01 T01530033  RH  045%=      5-min Rain = 0
KPT1 190955Z 31012G17KT 15/03 A2979 RMK A01 T01530033  RH  045%=      5-min Rain = 0
KPT1 191000Z 31013KT 15/03 A2979 RMK A01 T01540032  RH  045%=      5-min Rain = 0
KPT1 191005Z 31013KT 15/03 A2979 RMK A01 T01530032  RH  045%=      5-min Rain = 0
KPT1 191010Z 31013G18KT 15/03 A298 RMK A01 T01520031  RH  045%=      5-min Rain = 0
KPT1 191015Z 31013KT 15/03 A298 RMK A01 T01510031  RH  045%=      5-min Rain = 0
KPT1 191020Z 31013G18KT 15/03 A298 RMK A01 T01500031  RH  045%=      5-min Rain = 0
KPT1 191025Z 31013G18KT 15/03 A298 RMK A01 T01500030  RH  045%=      5-min Rain = 0
KPT1 191030Z 31013G18KT 15/03 A2981 RMK A01 T01490030  RH  045%=      5-min Rain = 0
KPT1 191035Z 32012G17KT 15/03 A2981 RMK A01 T01480029  RH  046%=      5-min Rain = 0
KPT1 191040Z 31011G16KT 15/03 A2981 RMK A01 T01470029  RH  046%=      5-min Rain = 0
KPT1 191045Z 31011G17KT 15/03 A2982 RMK A01 T01460029  RH  046%=      5-min Rain = 0
KPT1 191050Z 31013G19KT 15/03 A2982 RMK A01 T01470029  RH  046%=      5-min Rain = 0
KPT1 191055Z 31012KT 15/03 A2982 RMK A01 T01470028  RH  046%=      5-min Rain = 0
KPT1 191100Z 32011KT 15/03 A2982 RMK A01 T01450028  RH  046%=      5-min Rain = 0
KPT1 191105Z 31012KT 15/03 A2982 RMK A01 T01450027  RH  046%=      5-min Rain = 0
KPT1 191110Z 31013G19KT 15/03 A2983 RMK A01 T01450027  RH  046%=      5-min Rain = 0
KPT1 191115Z 31011G17KT 15/03 A2983 RMK A01 T01450026  RH  045%=      5-min Rain = 0
KPT1 191120Z 31013KT 15/03 A2983 RMK A01 T01450026  RH  046%=      5-min Rain = 0
KPT1 191125Z 32012G17KT 14/03 A2983 RMK A01 T01440026  RH  046%=      5-min Rain = 0
KPT1 191130Z 32013G18KT 14/03 A2983 RMK A01 T01440026  RH  046%=      5-min Rain = 0
KPT1 191135Z 32013G19KT 15/03 A2983 RMK A01 T01450026  RH  045%=      5-min Rain = 0
KPT1 191140Z 32013G18KT 14/03 A2983 RMK A01 T01430025  RH  046%=      5-min Rain = 0
KPT1 191145Z 32014KT 14/03 A2983 RMK A01 T01440025  RH  045%=      5-min Rain = 0
KPT1 191150Z 32013G19KT 14/02 A2984 RMK A01 T01430024  RH  045%=      5-min Rain = 0
KPT1 191155Z 32013G19KT 14/02 A2984 RMK A01 T01420024  RH  045%=      5-min Rain = 0
KPT1 191200Z 32013G18KT 14/02 A2984 RMK A01 T01420023  RH  045%=      5-min Rain = 0
KPT1 191205Z 32014KT 14/02 A2984 RMK A01 T01420023  RH  045%=      5-min Rain = 0
KPT1 191210Z 32014G20KT 14/02 A2984 RMK A01 T01410023  RH  045%=      5-min Rain = 0
KPT1 191215Z 32012G17KT 14/02 A2984 RMK A01 T01400022  RH  046%=      5-min Rain = 0
KPT1 191220Z 32013G18KT 14/02 A2985 RMK A01 T01400022  RH  046%=      5-min Rain = 0
KPT1 191225Z 32012G17KT 14/02 A2985 RMK A01 T01390023  RH  046%=      5-min Rain = 0
KPT1 191230Z 32013G18KT 14/02 A2985 RMK A01 T01370023  RH  047%=      5-min Rain = 0
KPT1 191235Z 32011G16KT 14/02 A2986 RMK A01 T01360023  RH  047%=      5-min Rain = 0
KPT1 191240Z 33012G18KT 14/02 A2986 RMK A01 T01360023  RH  047%=      5-min Rain = 0
KPT1 191245Z 33011KT 14/02 A2987 RMK A01 T01350023  RH  047%=      5-min Rain = 0
KPT1 191250Z 33010G15KT 13/02 A2987 RMK A01 T01340024  RH  048%=      5-min Rain = 0
KPT1 191255Z 33011KT 13/02 A2987 RMK A01 T01320024  RH  048%=      5-min Rain = 0
KPT1 191300Z 32009KT 13/02 A2987 RMK A01 T01310024  RH  049%=      5-min Rain = 0
KPT1 191305Z 32010G16KT 13/02 A2988 RMK A01 T01310024  RH  049%=      5-min Rain = 0
KPT1 191310Z 32010KT 13/02 A2988 RMK A01 T01310024  RH  049%=      5-min Rain = 0
KPT1 191315Z 32010G17KT 13/03 A2988 RMK A01 T01320025  RH  049%=      5-min Rain = 0
KPT1 191320Z 31011KT 13/03 A2988 RMK A01 T01320025  RH  049%=      5-min Rain = 0
KPT1 191325Z 31011G16KT 13/03 A2988 RMK A01 T01340026  RH  049%=      5-min Rain = 0
KPT1 191330Z 32011KT 14/03 A2988 RMK A01 T01350026  RH  048%=      5-min Rain = 0
KPT1 191335Z 32011KT 14/03 A2988 RMK A01 T01360026  RH  048%=      5-min Rain = 0
KPT1 191340Z 32012G17KT 14/03 A2989 RMK A01 T01380026  RH  048%=      5-min Rain = 0
KPT1 191345Z 32011G16KT 14/03 A2989 RMK A01 T01400027  RH  047%=      5-min Rain = 0
KPT1 191350Z 32012G17KT 14/03 A2989 RMK A01 T01420027  RH  046%=      5-min Rain = 0
KPT1 191355Z 32012KT 14/03 A2989 RMK A01 T01440027  RH  046%=      5-min Rain = 0
KPT1 191400Z 33011G16KT 15/03 A2989 RMK A01 T01460027  RH  046%=      5-min Rain = 0
KPT1 191405Z 33012G18KT 15/03 A299 RMK A01 T01480027  RH  045%=      5-min Rain = 0
KPT1 191410Z 33011G16KT 15/03 A299 RMK A01 T01500028  RH  044%=      5-min Rain = 0
KPT1 191415Z 33012KT 15/03 A299 RMK A01 T01520028  RH  044%=      5-min Rain = 0
KPT1 191420Z 33011G16KT 16/03 A299 RMK A01 T01550028  RH  043%=      5-min Rain = 0
KPT1 191425Z 33011KT 16/03 A2991 RMK A01 T01570028  RH  042%=      5-min Rain = 0
KPT1 191430Z 33010G15KT 16/03 A2991 RMK A01 T01610028  RH  042%=      5-min Rain = 0
KPT1 191435Z 33010KT 16/03 A2991 RMK A01 T01640028  RH  041%=      5-min Rain = 0
KPT1 191440Z 33010G15KT 17/03 A2992 RMK A01 T01680028  RH  040%=      5-min Rain = 0
KPT1 191445Z 34011KT 17/03 A2992 RMK A01 T01710028  RH  039%=      5-min Rain = 0
KPT1 191450Z 34011KT 17/03 A2992 RMK A01 T01730027  RH  038%=      5-min Rain = 0
KPT1 191455Z 34012G18KT 17/03 A2993 RMK A01 T01740026  RH  038%=      5-min Rain = 0
KPT1 191500Z 35012G18KT 18/03 A2993 RMK A01 T01760025  RH  037%=      5-min Rain = 0
KPT1 191505Z 34010G15KT 18/03 A2993 RMK A01 T01820027  RH  036%=      5-min Rain = 0
KPT1 191510Z 34011G16KT 18/03 A2994 RMK A01 T01830025  RH  036%=      5-min Rain = 0
KPT1 191515Z 35013G18KT 18/02 A2994 RMK A01 T01810024  RH  036%=      5-min Rain = 0
KPT1 191520Z 34011G16KT 19/03 A2994 RMK A01 T01850025  RH  035%=      5-min Rain = 0
KPT1 191525Z 35011G17KT 19/02 A2994 RMK A01 T01860024  RH  034%=      5-min Rain = 0
KPT1 191530Z 35011G16KT 19/03 A2994 RMK A01 T01880025  RH  034%=      5-min Rain = 0
KPT1 191535Z 35010KT 19/03 A2994 RMK A01 T01910025  RH  034%=      5-min Rain = 0
KPT1 191540Z 00010G16KT 20/02 A2994 RMK A01 T01960024  RH  032%=      5-min Rain = 0
KPT1 191545Z 02011G16KT 20/02 A2994 RMK A01 T01970024  RH  032%=      5-min Rain = 0
KPT1 191550Z 01011KT 20/02 A2994 RMK A01 T01960024  RH  032%=      5-min Rain = 0
KPT1 191555Z 36012G19KT 20/02 A2994 RMK A01 T01950023  RH  032%=      5-min Rain = 0
KPT1 191600Z 36011KT 20/02 A2994 RMK A01 T01950023  RH  032%=      5-min Rain = 0
KPT1 191605Z 01013G18KT 19/02 A2994 RMK A01 T01940022  RH  032%=      5-min Rain = 0
KPT1 191610Z 01011KT 20/02 A2994 RMK A01 T01990024  RH  032%=      5-min Rain = 0
KPT1 191615Z 36012KT 20/02 A2995 RMK A01 T02000024  RH  032%=      5-min Rain = 0
KPT1 191620Z 01011KT 20/02 A2995 RMK A01 T02000024  RH  031%=      5-min Rain = 0
KPT1 191625Z 02007G12KT 20/03 A2995 RMK A01 T02040026  RH  031%=      5-min Rain = 0
KPT1 191630Z 00008KT 21/03 A2995 RMK A01 T02050026  RH  031%=      5-min Rain = 0
KPT1 191635Z 00008G14KT 21/03 A2995 RMK A01 T02070026  RH  031%=      5-min Rain = 0
KPT1 191640Z 00009KT 20/03 A2995 RMK A01 T02040025  RH  031%=      5-min Rain = 0
KPT1 191645Z 36007KT 21/03 A2995 RMK A01 T02100027  RH  030%=      5-min Rain = 0
KPT1 191650Z 00007KT 21/03 A2995 RMK A01 T02110026  RH  030%=      5-min Rain = 0
KPT1 191655Z 36007KT 21/03 A2995 RMK A01 T02130025  RH  029%=      5-min Rain = 0
KPT1 191700Z 03009KT 22/02 A2995 RMK A01 T02160024  RH  029%=      5-min Rain = 0
KPT1 191705Z 03008KT 22/02 A2995 RMK A01 T02180024  RH  028%=      5-min Rain = 0
KPT1 191710Z 03008KT 22/02 A2995 RMK A01 T02200024  RH  028%=      5-min Rain = 0
KPT1 191715Z 01008KT 22/02 A2995 RMK A01 T02190024  RH  028%=      5-min Rain = 0
KPT1 191720Z 00007G12KT 22/02 A2995 RMK A01 T02230023  RH  027%=      5-min Rain = 0
KPT1 191725Z 00007KT 22/02 A2995 RMK A01 T02230024  RH  027%=      5-min Rain = 0
KPT1 191730Z 02006G11KT 22/02 A2994 RMK A01 T02210020  RH  027%=      5-min Rain = 0
KPT1 191735Z 00008G14KT 22/02 A2994 RMK A01 T02240021  RH  027%=      5-min Rain = 0
KPT1 191740Z 00008KT 22/02 A2994 RMK A01 T02220019  RH  027%=      5-min Rain = 0
KPT1 191745Z 34006KT 22/02 A2994 RMK A01 T02220020  RH  027%=      5-min Rain = 0
KPT1 191750Z 34008G14KT 23/02 A2994 RMK A01 T02300021  RH  026%=      5-min Rain = 0
KPT1 191755Z 35009KT 23/02 A2994 RMK A01 T02290019  RH  025%=      5-min Rain = 0
KPT1 191800Z 01006KT 23/02 A2994 RMK A01 T02250018  RH  026%=      5-min Rain = 0
KPT1 191805Z 00005KT 24/02 A2993 RMK A01 T02350020  RH  025%=      5-min Rain = 0
KPT1 191810Z 01005KT 24/02 A2993 RMK A01 T02370018  RH  024%=      5-min Rain = 0
KPT1 191815Z 03007KT 24/01 A2993 RMK A01 T02350014  RH  024%=      5-min Rain = 0
KPT1 191820Z 04005KT 24/01 A2992 RMK A01 T02360012  RH  023%=      5-min Rain = 0
KPT1 191825Z 04004KT 24/01 A2992 RMK A01 T02380013  RH  023%=      5-min Rain = 0
KPT1 191830Z 35005KT 24/01 A2992 RMK A01 T02390010  RH  022%=      5-min Rain = 0
KPT1 191835Z 01006KT 24/01 A2991 RMK A01 T02410009  RH  022%=      5-min Rain = 0
KPT1 191840Z 01007KT 24/01 A2991 RMK A01 T02380007  RH  022%=      5-min Rain = 0
KPT1 191845Z 02004G10KT 24/01 A2991 RMK A01 T02380006  RH  022%=      5-min Rain = 0
KPT1 191850Z 02006G12KT 24/01 A2991 RMK A01 T02390005  RH  022%=      5-min Rain = 0
KPT1 191855Z 01006KT 24/01 A299 RMK A01 T02420006  RH  021%=      5-min Rain = 0
KPT1 191900Z 35005KT 24/01 A299 RMK A01 T02420005  RH  021%=      5-min Rain = 0
KPT1 191905Z 02007KT 25/01 A299 RMK A01 T02460006  RH  021%=      5-min Rain = 0
KPT1 191910Z 01006G11KT 25/01 A299 RMK A01 T02480005  RH  020%=      5-min Rain = 0
KPT1 191915Z 35006KT 25/00 A2989 RMK A01 T02480003  RH  020%=      5-min Rain = 0
KPT1 191920Z 35004G9KT 24/00 A2989 RMK A01 T02400000  RH  021%=      5-min Rain = 0
KPT1 191925Z 35006KT 25/00 A2989 RMK A01 T02460003  RH  021%=      5-min Rain = 0
KPT1 191930Z 00004G9KT 25/00 A2989 RMK A01 T02510002  RH  020%=      5-min Rain = 0
KPT1 191935Z 05004G11KT 25/00 A2989 RMK A01 T024800-0  RH  020%=      5-min Rain = 0
KPT1 191940Z 05004KT 25/M00 A2988 RMK A01 T02491001  RH  020%=      5-min Rain = 0
KPT1 191945Z 03006KT 25/M00 A2988 RMK A01 T02541001  RH  019%=      5-min Rain = 0
KPT1 191950Z 01006G12KT 25/M00 A2988 RMK A01 T02501003  RH  019%=      5-min Rain = 0
KPT1 191955Z 00004G9KT 25/M00 A2988 RMK A01 T02481004  RH  019%=      5-min Rain = 0
KPT1 192000Z 00004KT 25/M01 A2988 RMK A01 T02491006  RH  019%=      5-min Rain = 0
KPT1 192005Z 04003KT 25/M01 A2988 RMK A01 T02471008  RH  019%=      5-min Rain = 0
KPT1 192010Z 08003G8KT 25/M01 A2988 RMK A01 T02471006  RH  019%=      5-min Rain = 0
KPT1 192015Z 01004KT 25/M00 A2988 RMK A01 T02541003  RH  019%=      5-min Rain = 0
KPT1 192020Z 03003G9KT 26/M00 A2987 RMK A01 T02551002  RH  019%=      5-min Rain = 0
KPT1 192025Z 03005KT 26/M00 A2987 RMK A01 T02551002  RH  019%=      5-min Rain = 0
KPT1 192030Z 35003KT 26/M00 A2987 RMK A01 T02561002  RH  019%=      5-min Rain = 0
KPT1 192035Z 04005KT 25/M01 A2987 RMK A01 T02531005  RH  018%=      5-min Rain = 0
KPT1 192040Z 06007KT 25/M01 A2987 RMK A01 T02541005  RH  018%=      5-min Rain = 0
KPT1 192045Z 07005KT 25/M01 A2987 RMK A01 T02541006  RH  018%=      5-min Rain = 0
KPT1 192050Z 05002KT 25/M01 A2987 RMK A01 T02491009  RH  018%=      5-min Rain = 0
KPT1 192055Z 13003KT 25/M01 A2987 RMK A01 T02491008  RH  018%=      5-min Rain = 0
KPT1 192100Z 13003KT 26/M01 A2987 RMK A01 T02571005  RH  018%=      5-min Rain = 0
KPT1 192105Z 09002KT 25/M01 A2987 RMK A01 T02521009  RH  018%=      5-min Rain = 0
KPT1 192110Z 36002G8KT 26/M01 A2987 RMK A01 T02561006  RH  018%=      5-min Rain = 0
KPT1 192115Z 33003KT 26/M01 A2987 RMK A01 T02571006  RH  018%=      5-min Rain = 0
KPT1 192120Z 34003KT 26/M01 A2987 RMK A01 T02581006  RH  018%=      5-min Rain = 0
KPT1 192125Z 26001KT 26/M01 A2987 RMK A01 T02571009  RH  018%=      5-min Rain = 0
KPT1 192130Z 18001KT 26/M01 A2986 RMK A01 T02601006  RH  018%=      5-min Rain = 0
KPT1 192135Z 16000KT 26/M01 A2986 RMK A01 T02641008  RH  017%=      5-min Rain = 0
KPT1 192140Z 12002KT 26/M01 A2986 RMK A01 T02621008  RH  017%=      5-min Rain = 0
KPT1 192145Z 14004KT 26/M01 A2986 RMK A01 T02581006  RH  018%=      5-min Rain = 0
KPT1 192150Z 13003KT 26/M01 A2986 RMK A01 T02551005  RH  018%=      5-min Rain = 0
KPT1 192155Z 11003KT 26/M00 A2986 RMK A01 T02551003  RH  019%=      5-min Rain = 0
KPT1 192200Z 10002KT 26/M00 A2986 RMK A01 T02571004  RH  018%=      5-min Rain = 0
KPT1 192205Z 02004KT 26/M01 A2986 RMK A01 T02571005  RH  018%=      5-min Rain = 0
KPT1 192210Z 03004KT 25/M00 A2986 RMK A01 T02541004  RH  018%=      5-min Rain = 0
KPT1 192215Z 04004KT 25/M01 A2986 RMK A01 T02531005  RH  018%=      5-min Rain = 0
KPT1 192220Z 04004KT 25/M00 A2986 RMK A01 T02531004  RH  019%=      5-min Rain = 0
KPT1 192225Z 06003KT 25/M00 A2986 RMK A01 T02541004  RH  018%=      5-min Rain = 0
KPT1 192230Z 02002KT 25/M00 A2986 RMK A01 T02521004  RH  019%=      5-min Rain = 0
KPT1 192235Z 03003KT 25/M00 A2986 RMK A01 T02541003  RH  019%=      5-min Rain = 0
KPT1 192240Z 07003KT 25/M01 A2986 RMK A01 T02511005  RH  019%=      5-min Rain = 0
KPT1 192245Z 04002KT 25/M01 A2986 RMK A01 T02491006  RH  019%=      5-min Rain = 0
KPT1 192250Z 11002KT 25/M00 A2986 RMK A01 T02531003  RH  019%=      5-min Rain = 0
KPT1 192255Z 14002KT 25/M00 A2986 RMK A01 T02511004  RH  019%=      5-min Rain = 0
KPT1 192300Z 16000KT 25/M00 A2986 RMK A01 T02521004  RH  019%=      5-min Rain = 0
KPT1 192305Z 14002KT 25/M00 A2986 RMK A01 T02541002  RH  019%=      5-min Rain = 0
KPT1 192310Z 16003KT 25/M00 A2986 RMK A01 T02521002  RH  019%=      5-min Rain = 0
KPT1 192315Z 16003KT 25/M00 A2986 RMK A01 T02511004  RH  019%=      5-min Rain = 0
KPT1 192320Z 15003KT 25/M00 A2986 RMK A01 T02471003  RH  020%=      5-min Rain = 0
KPT1 192325Z 13003KT 25/00 A2986 RMK A01 T02460002  RH  020%=      5-min Rain = 0
KPT1 192330Z 10004KT 24/01 A2986 RMK A01 T02390007  RH  022%=      5-min Rain = 0
KPT1 192335Z 10005KT 24/01 A2986 RMK A01 T02350007  RH  022%=      5-min Rain = 0
KPT1 192340Z 11004KT 23/01 A2986 RMK A01 T02320008  RH  023%=      5-min Rain = 0
KPT1 192345Z 11004KT 23/01 A2986 RMK A01 T02300009  RH  023%=      5-min Rain = 0
KPT1 192350Z 10004KT 23/01 A2986 RMK A01 T02280008  RH  024%=      5-min Rain = 0
KPT1 192355Z 11003KT 23/01 A2986 RMK A01 T02250009  RH  024%=      5-min Rain = 0
KPT1 200000Z 12004KT 22/01 A2986 RMK A01 T02220010  RH  025%=      5-min Rain = 0
KPT1 200005Z 11004KT 22/01 A2986 RMK A01 T02190009  RH  025%=      5-min Rain = 0
KPT1 200010Z 10005KT 22/01 A2986 RMK A01 T02150009  RH  026%=      5-min Rain = 0
KPT1 200015Z 11005KT 21/01 A2986 RMK A01 T02100011  RH  027%=      5-min Rain = 0
KPT1 200020Z 11005KT 21/01 A2986 RMK A01 T02080012  RH  027%=      5-min Rain = 0
KPT1 200025Z 11005KT 21/01 A2986 RMK A01 T02070012  RH  028%=      5-min Rain = 0
KPT1 200030Z 11005KT 20/01 A2986 RMK A01 T02030013  RH  029%=      5-min Rain = 0
KPT1 200035Z 11005KT 20/01 A2986 RMK A01 T02010013  RH  029%=      5-min Rain = 0
KPT1 200040Z 11006KT 20/01 A2986 RMK A01 T01980013  RH  030%=      5-min Rain = 0
KPT1 200045Z 11005KT 20/01 A2986 RMK A01 T01970013  RH  030%=      5-min Rain = 0
KPT1 200050Z 11005KT 20/01 A2986 RMK A01 T01950013  RH  030%=      5-min Rain = 0
KPT1 200055Z 11005KT 19/01 A2986 RMK A01 T01930014  RH  031%=      5-min Rain = 0
KPT1 200100Z 12005KT 19/02 A2986 RMK A01 T01890015  RH  032%=      5-min Rain = 0
KPT1 200105Z 12005KT 19/02 A2986 RMK A01 T01880015  RH  032%=      5-min Rain = 0
KPT1 200110Z 12005KT 19/02 A2986 RMK A01 T01870015  RH  032%=      5-min Rain = 0
KPT1 200115Z 13005KT 18/02 A2986 RMK A01 T01830016  RH  033%=      5-min Rain = 0
KPT1 200120Z 14004KT 18/02 A2986 RMK A01 T01830017  RH  033%=      5-min Rain = 0
KPT1 200125Z 15004KT 18/02 A2987 RMK A01 T01840017  RH  033%=      5-min Rain = 0
KPT1 200130Z 15003KT 19/02 A2987 RMK A01 T01850016  RH  033%=      5-min Rain = 0
KPT1 200135Z 17001KT 18/02 A2987 RMK A01 T01780020  RH  035%=      5-min Rain = 0
KPT1 200140Z 17001KT 17/02 A2987 RMK A01 T01710021  RH  037%=      5-min Rain = 0
KPT1 200145Z 16002KT 18/02 A2987 RMK A01 T01800019  RH  034%=      5-min Rain = 0
KPT1 200150Z 16004KT 18/02 A2987 RMK A01 T01810021  RH  035%=      5-min Rain = 0
KPT1 200155Z 16004KT 18/02 A2987 RMK A01 T01800020  RH  035%=      5-min Rain = 0
KPT1 200200Z 17003KT 18/02 A2987 RMK A01 T01810021  RH  035%=      5-min Rain = 0
KPT1 200205Z 18003KT 18/02 A2987 RMK A01 T01800022  RH  035%=      5-min Rain = 0
KPT1 200210Z 19003KT 18/02 A2987 RMK A01 T01780023  RH  036%=      5-min Rain = 0
KPT1 200215Z 19003KT 18/02 A2987 RMK A01 T01750024  RH  037%=      5-min Rain = 0
KPT1 200220Z 19003KT 17/02 A2987 RMK A01 T01740023  RH  037%=      5-min Rain = 0
KPT1 200225Z 18003KT 17/02 A2987 RMK A01 T01740023  RH  037%=      5-min Rain = 0
KPT1 200230Z 18004KT 17/02 A2987 RMK A01 T01730022  RH  037%=      5-min Rain = 0
KPT1 200235Z 17004KT 17/02 A2987 RMK A01 T01700022  RH  038%=      5-min Rain = 0
KPT1 200240Z 17004KT 17/02 A2987 RMK A01 T01710021  RH  037%=      5-min Rain = 0
KPT1 200245Z 17004KT 17/02 A2987 RMK A01 T01720019  RH  036%=      5-min Rain = 0
KPT1 200250Z 16004KT 17/02 A2987 RMK A01 T01730019  RH  036%=      5-min Rain = 0
KPT1 200255Z 17004KT 17/02 A2987 RMK A01 T01740018  RH  036%=      5-min Rain = 0
KPT1 200300Z 18003KT 18/02 A2987 RMK A01 T01750017  RH  035%=      5-min Rain = 0
KPT1 200305Z 18003KT 18/02 A2988 RMK A01 T01750018  RH  035%=      5-min Rain = 0
KPT1 200310Z 19003KT 18/02 A2988 RMK A01 T01750018  RH  035%=      5-min Rain = 0
KPT1 200315Z 18004KT 18/02 A2988 RMK A01 T01760018  RH  035%=      5-min Rain = 0
KPT1 200320Z 16004KT 17/02 A2988 RMK A01 T01740018  RH  035%=      5-min Rain = 0
KPT1 200325Z 16004KT 17/02 A2988 RMK A01 T01720018  RH  036%=      5-min Rain = 0
KPT1 200330Z 16004KT 17/02 A2988 RMK A01 T01680019  RH  037%=      5-min Rain = 0
KPT1 200335Z 15005KT 17/02 A2988 RMK A01 T01690018  RH  037%=      5-min Rain = 0
KPT1 200340Z 15004KT 17/02 A2988 RMK A01 T01690018  RH  037%=      5-min Rain = 0
KPT1 200345Z 14004KT 17/02 A2988 RMK A01 T01700019  RH  037%=      5-min Rain = 0
KPT1 200350Z 15005KT 17/02 A2988 RMK A01 T01690019  RH  037%=      5-min Rain = 0
KPT1 200355Z 15004KT 17/02 A2988 RMK A01 T01670019  RH  038%=      5-min Rain = 0
KPT1 200400Z 15005KT 17/02 A2988 RMK A01 T01660020  RH  038%=      5-min Rain = 0
KPT1 200405Z 15004KT 16/02 A2988 RMK A01 T01640020  RH  038%=      5-min Rain = 0
KPT1 200410Z 15004KT 16/02 A2988 RMK A01 T01620021  RH  039%=      5-min Rain = 0
KPT1 200415Z 15004KT 16/02 A2987 RMK A01 T01620021  RH  039%=      5-min Rain = 0
KPT1 200420Z 15004KT 16/02 A2987 RMK A01 T01610020  RH  039%=      5-min Rain = 0
KPT1 200425Z 16004KT 16/02 A2987 RMK A01 T01620021  RH  039%=      5-min Rain = 0
KPT1 200430Z 15004KT 16/02 A2987 RMK A01 T01610021  RH  039%=      5-min Rain = 0
KPT1 200435Z 15004KT 16/02 A2987 RMK A01 T01600021  RH  040%=      5-min Rain = 0
KPT1 200440Z 16004KT 16/02 A2987 RMK A01 T01590021  RH  040%=      5-min Rain = 0
KPT1 200445Z 16004KT 16/02 A2986 RMK A01 T01570022  RH  041%=      5-min Rain = 0
KPT1 200450Z 16004KT 16/02 A2986 RMK A01 T01560022  RH  041%=      5-min Rain = 0
KPT1 200455Z 16004KT 16/02 A2986 RMK A01 T01550022  RH  041%=      5-min Rain = 0

Page generated in 0.0492 seconds.